Terminal Aerodrome Forecast
Issued by NWS Boston, MA

Home | Current Version | Previous Version | Text Only | Print | Product List | Glossary On
Versions: 1 2 3 4 5 6 7 8 9 10 11 12 13 14 15 16 17 18 19 20 21 22 23 24 25 26 27 28 29 30 31 32 33 34 35 36 37 38 39 40 41
000
FTUS41 KBOX 031139
TAFBDL
TAF
KBDL 031139Z 0312/0418 VRB03KT P6SM SKC
     FM031900 19006KT P6SM BKN110
     FM032100 18008KT 2SM -SN OVC030
     FM040200 19008KT 1SM -SNPL OVC010
     FM040400 20009KT 5SM -FZRAPL BR OVC010
     FM040800 21008KT P6SM OVC008=

USA.gov is the U.S. government's official web portal to all federal, state and local government web resources and services.